Time;durP1;ratioP1;P1;durP2;ratioP2;P2;SDS_P1;SDS_P2;PMS_P1;PMS_P2;Temp;Humidity;BMP_temperature;BMP_pressure;BME280_temperature;BME280_humidity;BME280_pressure;Samples;Min_cycle;Max_cycle;Signal;HPM_P1;HPM_P2
2021/12/16 01:46:26;;;;;;;;;52.00;42.00;;;;;10.36;71.17;103171.84;4993160;28;44893;-96
2021/12/16 01:54:53;;;;;;;;;52.00;41.25;;;;;10.42;70.56;103195.97;4992548;28;44827;-96
2021/12/16 01:57:35;;;;;;;;;55.00;42.50;;;;;10.36;70.61;103193.72;4990843;28;46781;-96
2021/12/16 02:04:00;;;;;;;;;51.75;42.25;;;;;10.21;71.24;103180.22;4932944;28;45218;-96
2021/12/16 02:06:57;;;;;;;;;;;;;;;;;;;;;
2021/12/16 02:10:01;;;;;;;;;;;;;;;;;;;;;
2021/12/16 02:29:06;;;;;;;;;54.00;44.00;;;;;10.49;70.98;103236.78;4892794;29;44913;-96
2021/12/16 02:34:46;;;;;;;;;53.00;43.50;;;;;10.21;71.06;103189.78;4916433;28;45299;-96
2021/12/16 02:37:20;;;;;;;;;49.00;42.75;;;;;10.41;71.31;103224.75;4907065;28;44846;-96
2021/12/16 02:40:00;;;;;;;;;53.00;43.50;;;;;10.24;71.08;103203.19;4922288;28;44881;-96
2021/12/16 02:43:04;;;;;;;;;56.25;45.25;;;;;10.32;71.64;103207.41;4891183;28;44927;-96
2021/12/16 02:48:54;;;;;;;;;51.50;41.50;;;;;10.45;71.07;103230.38;4938909;28;44694;-96
2021/12/16 02:52:00;;;;;;;;;;;;;;;;;;;;;
2021/12/16 07:22:09;;;;;;;;;54.33;43.67;;;;;10.67;71.81;103332.06;6069506;23;46352;-96
2021/12/16 07:24:35;;;;;;;;;53.50;43.50;;;;;10.68;71.52;103327.72;4984689;28;45430;-87
2021/12/16 07:27:02;;;;;;;;;49.25;40.75;;;;;10.69;71.93;103322.63;4994584;28;45303;-88
2021/12/16 07:29:28;;;;;;;;;52.75;42.25;;;;;10.63;71.64;103322.09;4988797;28;45363;-87
2021/12/16 07:31:53;;;;;;;;;54.75;45.50;;;;;10.67;71.32;103334.69;4983521;28;45423;-87
2021/12/16 07:34:19;;;;;;;;;52.75;44.75;;;;;10.63;71.51;103323.78;4977302;28;45447;-87
2021/12/16 07:36:45;;;;;;;;;53.25;44.00;;;;;10.64;71.79;103331.81;4970851;28;46757;-88
2021/12/16 07:39:14;;;;;;;;;52.50;43.25;;;;;10.68;71.66;103335.59;4969769;28;46542;-88
2021/12/16 07:41:42;;;;;;;;;55.25;43.00;;;;;10.67;71.51;103333.78;4957002;28;45562;-87
2021/12/16 07:44:09;;;;;;;;;57.50;44.25;;;;;10.70;71.58;103334.03;4955029;28;45397;-87
2021/12/16 07:46:49;;;;;;;;;53.00;43.75;;;;;10.69;71.48;103335.75;4971452;28;45750;-87
2021/12/16 07:49:20;;;;;;;;;53.25;44.00;;;;;10.66;71.46;103335.50;4957687;28;48867;-88
2021/12/16 07:51:46;;;;;;;;;50.50;43.50;;;;;10.68;71.45;103336.53;4972147;28;45586;-87
2021/12/16 07:54:14;;;;;;;;;53.75;44.00;;;;;10.72;71.49;103346.50;4970461;28;45502;-87
2021/12/16 07:56:41;;;;;;;;;59.50;46.25;;;;;10.68;72.01;103339.16;4971198;28;45583;-88
2021/12/16 07:59:08;;;;;;;;;57.00;45.50;;;;;10.74;71.71;103336.16;4968652;28;46293;-88
2021/12/16 08:01:34;;;;;;;;;52.25;43.25;;;;;10.76;71.83;103344.16;4954368;28;45887;-87
2021/12/16 08:04:00;;;;;;;;;52.50;44.50;;;;;10.78;71.64;103347.84;4948465;28;45582;-87
2021/12/16 08:06:28;;;;;;;;;56.75;45.75;;;;;10.81;71.57;103348.09;4955271;28;45696;-87
2021/12/16 08:08:57;;;;;;;;;59.00;47.75;;;;;10.79;71.39;103352.31;4966926;28;55192;-88
2021/12/16 08:11:26;;;;;;;;;57.75;48.00;;;;;10.78;71.64;103350.47;4955892;28;45641;-88
2021/12/16 08:13:52;;;;;;;;;55.25;46.75;;;;;10.81;71.56;103363.88;4965813;28;47179;-87
2021/12/16 08:16:22;;;;;;;;;59.75;46.25;;;;;10.83;71.58;103367.53;4971232;28;45547;-87
2021/12/16 08:18:51;;;;;;;;;58.25;48.00;;;;;10.86;71.59;103359.94;4970792;28;46101;-87
2021/12/16 08:21:17;;;;;;;;;59.50;48.25;;;;;10.91;71.23;103361.25;4968726;28;45472;-87
2021/12/16 08:23:44;;;;;;;;;58.25;47.25;;;;;10.92;71.50;103359.56;4963333;28;45519;-87
2021/12/16 08:26:09;;;;;;;;;61.00;48.75;;;;;10.94;71.23;103361.53;4970932;28;45538;-88
2021/12/16 08:28:35;;;;;;;;;57.25;48.00;;;;;10.91;71.40;103357.69;4949385;28;47418;-87
2021/12/16 08:31:01;;;;;;;;;58.00;47.50;;;;;10.91;71.01;103363.88;4969865;28;45613;-88
2021/12/16 08:33:26;;;;;;;;;60.00;46.75;;;;;10.88;71.32;103362.69;4972044;28;45646;-87
2021/12/16 08:35:54;;;;;;;;;57.00;45.50;;;;;10.93;71.70;103366.63;4971516;28;45435;-88
2021/12/16 08:38:23;;;;;;;;;58.25;48.75;;;;;10.95;71.45;103362.44;4952016;28;48255;-87
2021/12/16 08:40:52;;;;;;;;;60.75;48.25;;;;;10.98;71.56;103364.41;4965521;28;46140;-87
2021/12/16 08:43:19;;;;;;;;;61.00;49.25;;;;;11.03;71.29;103369.25;4947981;28;45384;-87
2021/12/16 08:45:45;;;;;;;;;60.50;46.00;;;;;11.05;71.39;103372.03;4970143;28;45514;-87
2021/12/16 08:48:12;;;;;;;;;62.50;50.25;;;;;11.09;71.30;103370.56;4970478;28;46251;-88
2021/12/16 08:50:44;;;;;;;;;60.50;48.00;;;;;11.12;71.44;103371.78;4968873;28;45490;-90
2021/12/16 08:53:10;;;;;;;;;57.25;46.25;;;;;11.18;70.89;103382.78;4951358;28;45333;-93
2021/12/16 08:55:40;;;;;;;;;59.75;48.25;;;;;11.17;70.83;103378.34;4970212;28;45494;-89
2021/12/16 08:58:05;;;;;;;;;56.50;46.75;;;;;11.19;70.89;103383.72;4968673;28;46257;-87
2021/12/16 09:00:37;;;;;;;;;59.00;47.50;;;;;11.20;71.10;103374.13;4968842;28;45411;-88
2021/12/16 09:03:03;;;;;;;;;60.25;48.50;;;;;11.23;70.83;103387.53;4950032;28;45471;-87
2021/12/16 09:05:29;;;;;;;;;63.75;50.00;;;;;11.22;70.78;103373.47;4968606;28;45635;-88
2021/12/16 09:07:55;;;;;;;;;31.25;23.25;;;;;11.25;70.83;103376.38;4955204;28;47376;-88
2021/12/16 09:10:27;;;;;;;;;59.00;47.75;;;;;11.34;70.84;103393.72;4959012;28;46234;-88
2021/12/16 09:13:03;;;;;;;;;59.25;48.25;;;;;11.38;70.63;103391.47;4963725;28;45552;-88
2021/12/16 09:15:37;;;;;;;;;54.75;43.00;;;;;11.38;70.57;103386.22;4972138;28;45557;-87
2021/12/16 09:18:04;;;;;;;;;63.50;49.25;;;;;11.43;70.33;103388.31;4973281;28;47288;-87
2021/12/16 09:20:29;;;;;;;;;63.00;48.25;;;;;11.45;70.34;103390.28;4973971;28;45544;-87
2021/12/16 09:22:55;;;;;;;;;61.00;49.00;;;;;11.49;70.03;103397.63;4951434;28;45560;-86
2021/12/16 09:25:21;;;;;;;;;66.50;52.25;;;;;11.48;70.46;103398.44;4970610;28;45675;-87
2021/12/16 09:27:47;;;;;;;;;61.25;47.75;;;;;11.48;70.61;103403.69;4971195;28;46642;-87
2021/12/16 09:30:16;;;;;;;;;64.50;51.25;;;;;11.50;70.47;103401.19;4962083;28;45421;-86
2021/12/16 09:32:44;;;;;;;;;66.50;51.75;;;;;11.51;70.21;103406.59;4953702;28;45869;-87
2021/12/16 09:35:11;;;;;;;;;64.50;52.00;;;;;11.53;70.17;103405.78;4973976;28;45682;-87
2021/12/16 09:37:37;;;;;;;;;63.75;50.25;;;;;11.53;70.40;103411.97;4988211;28;47492;-86
2021/12/16 09:40:07;;;;;;;;;65.00;51.75;;;;;11.52;70.65;103402.22;4954110;28;45802;-86
2021/12/16 09:42:32;;;;;;;;;60.50;49.25;;;;;11.59;70.29;103403.69;4967273;28;45661;-87
2021/12/16 09:44:58;;;;;;;;;69.00;53.25;;;;;11.67;70.38;103414.84;4952562;28;45827;-87
2021/12/16 09:47:23;;;;;;;;;58.75;49.75;;;;;11.67;69.76;103415.78;4967857;28;46806;-88
2021/12/16 09:49:49;;;;;;;;;62.25;50.25;;;;;11.71;70.14;103425.75;4972667;28;45685;-88
2021/12/16 09:52:15;;;;;;;;;64.75;50.75;;;;;11.78;69.84;103421.00;4972599;28;45598;-86
2021/12/16 09:54:43;;;;;;;;;60.75;48.50;;;;;11.79;69.81;103418.50;4969830;28;45724;-87
2021/12/16 09:57:10;;;;;;;;;64.00;51.00;;;;;11.80;69.82;103424.69;4965470;28;46752;-87
2021/12/16 09:59:35;;;;;;;;;63.75;50.50;;;;;11.86;69.48;103433.09;4972183;28;45398;-87
2021/12/16 10:02:07;;;;;;;;;62.25;50.25;;;;;11.84;69.86;103432.06;4972911;28;45517;-87
2021/12/16 10:04:33;;;;;;;;;63.50;50.75;;;;;11.91;69.81;103429.13;4971055;28;45462;-87
2021/12/16 10:07:02;;;;;;;;;65.50;51.75;;;;;11.94;69.11;103429.41;4971916;28;45613;-87
2021/12/16 10:09:28;;;;;;;;;62.00;47.75;;;;;12.01;69.60;103432.56;4970531;28;47024;-87
2021/12/16 10:11:57;;;;;;;;;63.50;51.25;;;;;12.02;70.02;103423.84;4949058;28;45449;-87
2021/12/16 10:14:46;;;;;;;;;52.50;41.25;;;;;12.07;69.79;103427.78;4972374;28;45323;-87
2021/12/16 10:17:30;;;;;;;;;62.50;50.25;;;;;12.07;69.70;103431.34;4973505;28;45951;-86
2021/12/16 10:20:07;;;;;;;;;62.00;48.25;;;;;12.13;69.52;103430.00;4972543;28;45845;-87
2021/12/16 10:22:40;;;;;;;;;61.50;48.25;;;;;12.20;69.37;103428.81;4971877;28;45371;-87
2021/12/16 10:25:16;;;;;;;;;61.25;50.00;;;;;12.20;69.53;103432.38;4971908;28;45504;-86
2021/12/16 10:28:06;;;;;;;;;63.00;47.50;;;;;12.22;69.37;103441.31;4974399;28;49888;-87
2021/12/16 10:30:48;;;;;;;;;62.75;47.25;;;;;12.23;69.25;103435.25;4970346;28;45521;-87
2021/12/16 10:33:35;;;;;;;;;61.50;48.50;;;;;12.26;69.20;103440.78;4976858;28;45375;-87
2021/12/16 10:36:22;;;;;;;;;56.75;46.00;;;;;12.29;69.26;103441.00;4976143;28;45549;-87
2021/12/16 10:38:50;;;;;;;;;58.00;46.25;;;;;12.32;69.44;103432.44;4956861;28;47327;-86
2021/12/16 10:41:23;;;;;;;;;65.00;49.00;;;;;12.30;69.19;103423.50;4975773;28;45367;-87
2021/12/16 10:43:54;;;;;;;;;59.50;48.00;;;;;12.40;69.10;103438.34;4970817;28;45505;-87
2021/12/16 10:46:25;;;;;;;;;62.50;49.00;;;;;12.40;68.81;103425.16;4981448;28;45410;-87
2021/12/16 10:48:54;;;;;;;;;60.25;49.75;;;;;12.47;69.30;103424.88;4978097;28;48366;-87
2021/12/16 10:51:41;;;;;;;;;61.25;49.00;;;;;12.59;68.85;103430.22;4962985;28;45985;-86
2021/12/16 10:54:07;;;;;;;;;60.25;46.25;;;;;12.69;69.07;103429.25;4964177;28;45757;-87
2021/12/16 10:56:59;;;;;;;;;59.25;46.00;;;;;12.76;69.09;103416.53;4960231;28;45349;-87
2021/12/16 10:59:30;;;;;;;;;57.00;48.50;;;;;12.84;68.78;103418.06;4962627;28;47761;-86
2021/12/16 11:02:09;;;;;;;;;65.00;50.25;;;;;12.85;68.33;103418.22;4957128;28;45971;-87
2021/12/16 11:04:37;;;;;;;;;61.50;49.50;;;;;12.92;68.08;103423.94;4970911;28;45636;-86
2021/12/16 11:07:12;;;;;;;;;61.50;50.25;;;;;12.96;68.26;103421.66;4967727;28;45376;-86
2021/12/16 11:09:45;;;;;;;;;65.25;50.00;;;;;12.99;67.90;103412.19;4988814;28;45507;-86
2021/12/16 11:12:31;;;;;;;;;59.75;48.75;;;;;13.03;68.13;103415.19;4997471;28;45286;-86
2021/12/16 11:15:16;;;;;;;;;59.50;48.75;;;;;13.09;67.35;103424.38;4954917;28;45491;-86
2021/12/16 11:17:59;;;;;;;;;58.75;47.00;;;;;13.10;67.43;103420.91;4972778;28;45309;-86
2021/12/16 11:20:30;;;;;;;;;58.00;47.00;;;;;13.14;67.22;103426.53;4968313;28;47339;-87
2021/12/16 11:23:09;;;;;;;;;58.50;47.25;;;;;13.18;67.39;103426.00;4972060;28;45566;-85
2021/12/16 11:25:41;;;;;;;;;60.50;47.75;;;;;13.24;67.08;103420.28;4959950;28;45613;-87
2021/12/16 11:28:25;;;;;;;;;56.75;47.00;;;;;13.29;67.02;103424.22;4954157;28;45594;-86
2021/12/16 11:30:55;;;;;;;;;51.00;42.00;;;;;13.32;66.82;103420.88;4971149;28;48487;-87
2021/12/16 11:33:33;;;;;;;;;51.25;38.00;;;;;13.34;65.93;103424.56;4970394;28;45360;-87
2021/12/16 11:36:00;;;;;;;;;41.50;36.00;;;;;13.31;66.12;103419.03;4968216;28;45328;-86
2021/12/16 11:38:31;;;;;;;;;41.25;35.25;;;;;13.36;65.79;103416.75;4971487;28;45393;-87
2021/12/16 11:40:59;;;;;;;;;47.75;36.50;;;;;13.36;66.37;103427.31;4973420;28;45676;-86
2021/12/16 11:43:48;;;;;;;;;38.50;33.50;;;;;13.35;65.39;103425.50;4971364;28;45741;-87
2021/12/16 11:46:37;;;;;;;;;38.25;32.50;;;;;13.38;65.45;103420.41;4970709;28;45434;-86
2021/12/16 11:49:11;;;;;;;;;38.25;32.75;;;;;13.39;65.07;103417.00;4972037;28;45505;-86
2021/12/16 11:51:43;;;;;;;;;41.25;33.25;;;;;13.38;65.57;103412.50;4971309;28;45755;-87
2021/12/16 11:54:22;;;;;;;;;35.00;31.75;;;;;13.39;65.01;103409.09;4971298;28;45551;-87
2021/12/16 11:57:07;;;;;;;;;36.00;31.75;;;;;13.39;65.12;103410.00;4938470;28;45660;-86
2021/12/16 11:59:44;;;;;;;;;34.75;31.75;;;;;13.45;64.61;103417.44;4967407;28;45577;-86
2021/12/16 12:02:35;;;;;;;;;33.25;30.50;;;;;13.42;64.77;103406.69;4967176;28;45734;-87
2021/12/16 12:05:34;;;;;;;;;38.25;36.00;;;;;13.49;64.46;103414.25;4959222;28;45347;-87
2021/12/16 12:08:07;;;;;;;;;34.25;29.75;;;;;13.50;64.25;103416.09;4972800;28;45433;-87
2021/12/16 12:10:59;;;;;;;;;33.75;31.75;;;;;13.46;63.84;103408.75;4952043;28;45741;-87
2021/12/16 12:13:35;;;;;;;;;38.33;33.33;;;;;13.47;63.93;103399.13;4968908;28;45677;-87
2021/12/16 12:16:09;;;;;;;;;34.75;30.50;;;;;13.49;64.20;103408.06;4971719;28;45505;-86
2021/12/16 12:18:37;;;;;;;;;38.50;31.75;;;;;13.48;63.94;103411.47;4962785;28;45602;-87
2021/12/16 12:21:15;;;;;;;;;33.67;28.67;;;;;13.48;63.83;103416.75;4954125;28;45437;-87
2021/12/16 12:23:42;;;;;;;;;31.50;27.00;;;;;13.39;63.45;103398.53;4995853;28;47646;-88
2021/12/16 12:26:14;;;;;;;;;34.25;29.50;;;;;13.43;64.39;103400.59;4976020;28;45502;-87
2021/12/16 12:28:39;;;;;;;;;32.67;26.67;;;;;13.43;63.39;103397.94;4974870;28;45395;-88
2021/12/16 12:31:05;;;;;;;;;34.33;30.67;;;;;13.44;63.49;103397.16;4955585;28;45619;-88
2021/12/16 12:33:30;;;;;;;;;29.75;29.50;;;;;13.48;63.72;103393.03;4981673;28;48353;-92
2021/12/16 12:35:56;;;;;;;;;31.00;27.67;;;;;13.48;63.95;103386.03;4968756;28;45431;-89
2021/12/16 12:38:21;;;;;;;;;30.75;28.00;;;;;13.50;63.74;103387.06;4948220;28;45809;-89
2021/12/16 12:40:47;;;;;;;;;31.67;28.00;;;;;13.58;63.52;103402.63;4971947;28;45376;-90
2021/12/16 12:43:14;;;;;;;;;31.67;27.33;;;;;13.57;63.09;103392.84;4967081;28;48131;-90
2021/12/16 12:45:41;;;;;;;;;29.75;27.50;;;;;13.54;63.08;103396.13;4982735;28;45384;-89
2021/12/16 12:48:16;;;;;;;;;34.75;32.25;;;;;13.55;63.24;103397.06;4961800;28;45658;-88
2021/12/16 12:50:44;;;;;;;;;32.67;30.67;;;;;13.54;63.42;103387.28;4971918;28;45547;-89
2021/12/16 12:53:23;;;;;;;;;34.75;33.50;;;;;13.58;63.20;103390.31;4975195;28;46568;-91
2021/12/16 12:55:51;;;;;;;;;40.75;32.25;;;;;13.55;63.36;103381.22;4957737;28;45708;-89
2021/12/16 12:58:20;;;;;;;;;41.50;33.00;;;;;13.58;62.65;103385.03;4976454;28;45462;-88
2021/12/16 13:00:54;;;;;;;;;29.33;26.33;;;;;13.57;63.22;103385.84;4974907;28;45456;-89
2021/12/16 13:03:29;;;;;;;;;30.00;25.33;;;;;13.61;63.42;103389.63;4976103;28;46741;-92
2021/12/16 13:05:59;;;;;;;;;30.00;28.67;;;;;13.61;62.80;103387.91;4971520;28;45435;-90
2021/12/16 13:08:29;;;;;;;;;33.67;26.67;;;;;13.59;62.35;103381.59;4972118;28;45686;-89
2021/12/16 13:11:10;;;;;;;;;32.00;29.33;;;;;13.58;62.40;103379.75;4971568;28;45501;-89
2021/12/16 13:13:44;;;;;;;;;26.33;23.67;;;;;13.60;62.44;103377.25;4959410;28;48650;-92
2021/12/16 13:24:49;;;;;;;;;29.25;29.00;;;;;13.56;62.46;103370.78;4973712;28;45371;-90
2021/12/16 13:27:20;;;;;;;;;31.50;25.75;;;;;13.57;62.52;103367.38;4970432;28;45487;-91
2021/12/16 13:32:49;;;;;;;;;28.00;23.00;;;;;13.60;61.81;103366.69;4972919;28;45637;-89
2021/12/16 13:35:37;;;;;;;;;29.67;29.00;;;;;13.56;61.93;103361.94;4971840;28;48170;-89
2021/12/16 13:38:07;;;;;;;;;28.67;27.00;;;;;13.54;62.14;103358.25;4957818;28;45528;-90
2021/12/16 13:40:38;;;;;;;;;27.67;23.67;;;;;13.55;62.01;103366.31;4971895;28;45619;-90
2021/12/16 13:43:17;;;;;;;;;24.67;24.00;;;;;13.53;62.13;103357.34;4971314;28;46667;-89
2021/12/16 13:45:53;;;;;;;;;29.67;23.00;;;;;13.55;63.10;103363.69;4973265;28;46279;-90
2021/12/16 14:03:42;;;;;;;;;29.33;25.00;;;;;13.42;62.13;103361.84;4961279;28;46996;-89
2021/12/16 14:06:16;;;;;;;;;26.00;24.67;;;;;13.34;62.13;103358.63;4976960;28;45542;-90
2021/12/16 14:08:53;;;;;;;;;24.67;23.33;;;;;13.35;61.83;103364.81;4975390;28;46387;-90
2021/12/16 14:23:07;;;;;;;;;26.67;24.67;;;;;13.27;62.05;103362.47;4973216;28;45416;-89
2021/12/16 14:32:19;;;;;;;;;30.33;24.67;;;;;13.18;62.19;103351.22;4978483;28;49068;-89
2021/12/16 14:42:06;;;;;;;;;25.00;24.67;;;;;13.10;62.71;103358.56;4974132;28;45658;-89
2021/12/16 14:49:37;;;;;;;;;28.67;28.33;;;;;13.05;62.51;103363.47;4973991;28;45512;-89
2021/12/16 14:52:04;;;;;;;;;32.67;31.33;;;;;13.05;62.45;103378.38;4975888;28;47122;-89
2021/12/16 14:54:34;;;;;;;;;31.33;28.33;;;;;12.98;62.75;103368.16;4981061;28;45498;-89
2021/12/16 14:57:01;;;;;;;;;34.67;28.67;;;;;13.00;62.15;103379.75;4974270;28;45513;-89
2021/12/16 14:59:29;;;;;;;;;32.00;28.33;;;;;12.91;63.12;103369.41;4977263;28;45721;-89
2021/12/16 15:01:59;;;;;;;;;40.25;32.50;;;;;12.88;63.11;103370.09;4967173;28;47220;-95
2021/12/16 15:04:29;;;;;;;;;35.25;30.75;;;;;12.89;63.55;103365.72;4987523;28;45487;-89
2021/12/16 15:07:05;;;;;;;;;31.50;27.75;;;;;12.84;63.22;103374.19;4970140;28;45472;-92
2021/12/16 15:09:35;;;;;;;;;31.25;29.25;;;;;12.83;62.88;103367.06;4973750;28;45327;-93
2021/12/16 15:15:08;;;;;;;;;36.33;30.67;;;;;12.80;63.27;103372.13;4975821;28;45365;-89
2021/12/16 15:37:30;;;;;;;;;37.75;31.75;;;;;12.59;64.10;103371.34;4972053;28;45693;-89
2021/12/16 15:45:13;;;;;;;;;37.00;34.00;;;;;12.55;64.05;103388.59;4969517;28;45588;-88
2021/12/16 15:47:41;;;;;;;;;38.25;33.50;;;;;12.55;63.97;103387.72;4968667;28;45565;-88
2021/12/16 15:50:07;;;;;;;;;40.25;33.50;;;;;12.52;64.35;103386.63;4968860;28;46669;-89
2021/12/16 15:52:42;;;;;;;;;36.00;33.00;;;;;12.46;64.41;103372.06;4971440;28;45411;-88
2021/12/16 15:55:15;;;;;;;;;33.00;28.25;;;;;12.35;64.24;103363.28;4969107;28;48368;-89
2021/12/16 15:57:41;;;;;;;;;39.25;35.50;;;;;12.45;64.11;103393.94;4971695;28;45372;-89
2021/12/16 16:00:19;;;;;;;;;37.75;33.00;;;;;12.39;64.27;103383.84;4969328;28;50158;-88
2021/12/16 16:02:44;;;;;;;;;40.75;34.25;;;;;12.35;64.31;103389.63;4965411;28;45432;-88
2021/12/16 16:05:10;;;;;;;;;36.25;34.25;;;;;12.31;64.60;103379.66;4968703;28;46299;-88
2021/12/16 16:07:38;;;;;;;;;42.00;33.50;;;;;12.32;64.32;103384.16;4969243;28;45601;-88
2021/12/16 16:10:05;;;;;;;;;45.25;35.50;;;;;12.26;64.68;103377.59;4969291;28;45485;-89
2021/12/16 16:12:33;;;;;;;;;40.25;34.75;;;;;12.28;64.17;103385.59;4971504;28;45602;-87
2021/12/16 16:15:15;;;;;;;;;44.25;35.25;;;;;12.24;64.71;103383.53;4969440;28;48278;-89
2021/12/16 16:17:59;;;;;;;;;41.25;33.25;;;;;12.23;64.59;103393.13;4969768;28;45720;-88
2021/12/16 16:20:29;;;;;;;;;38.00;34.00;;;;;12.17;64.58;103389.97;4953301;28;45589;-88
2021/12/16 16:22:54;;;;;;;;;43.75;33.00;;;;;12.18;64.42;103394.47;4972323;28;45589;-88
2021/12/16 16:25:20;;;;;;;;;41.75;33.75;;;;;12.16;64.82;103390.81;4970043;28;46233;-89
2021/12/16 16:27:46;;;;;;;;;44.25;35.50;;;;;12.13;64.62;103395.78;4973793;28;45495;-88
2021/12/16 16:30:11;;;;;;;;;43.75;37.25;;;;;12.13;64.78;103402.00;4970601;28;45523;-89
2021/12/16 16:33:07;;;;;;;;;37.00;33.75;;;;;12.14;65.52;103400.25;4970186;28;45483;-88
2021/12/16 16:35:43;;;;;;;;;41.25;35.75;;;;;12.11;65.02;103398.25;4967192;28;47988;-88
2021/12/16 16:38:10;;;;;;;;;34.75;31.50;;;;;12.13;65.01;103406.31;4969810;28;45363;-88
2021/12/16 16:40:41;;;;;;;;;36.25;34.00;;;;;12.11;64.71;103394.72;4968986;28;45558;-88
2021/12/16 16:43:24;;;;;;;;;41.00;34.75;;;;;12.14;64.40;103406.44;4967675;28;45458;-89
2021/12/16 16:45:53;;;;;;;;;39.00;35.50;;;;;12.15;64.35;103415.28;4969803;28;46501;-89
2021/12/16 16:49:25;;;;;;;;;41.25;34.25;;;;;12.15;64.65;103410.94;4949231;28;46537;-86
2021/12/16 16:51:42;;;;;;;;;43.50;37.25;;;;;12.15;64.65;103418.84;4944241;28;45431;-84
2021/12/16 16:54:15;;;;;;;;;39.75;34.75;;;;;12.15;64.38;103416.19;4950300;28;45647;-85
2021/12/16 16:56:53;;;;;;;;;47.25;36.75;;;;;12.16;64.71;103425.03;4944955;28;46403;-85
2021/12/16 16:59:41;;;;;;;;;36.75;34.75;;;;;12.16;63.79;103425.03;4951146;28;46328;-85
2021/12/16 17:02:43;;;;;;;;;46.25;36.75;;;;;12.16;64.41;103409.22;4950445;28;45499;-85
2021/12/16 17:05:27;;;;;;;;;42.25;34.00;;;;;12.14;63.56;103423.97;4953990;28;46975;-85
2021/12/16 17:08:03;;;;;;;;;38.75;34.50;;;;;12.16;63.96;103414.50;4962948;28;49197;-85
2021/12/16 17:10:41;;;;;;;;;40.00;35.25;;;;;12.13;63.84;103419.47;4971064;28;45437;-85
2021/12/16 17:13:24;;;;;;;;;43.50;35.75;;;;;12.16;63.92;103422.41;4954730;28;45582;-84
2021/12/16 17:18:38;;;;;;;;;37.75;32.00;;;;;12.14;63.84;103424.88;4971380;28;46208;-85
2021/12/16 17:21:14;;;;;;;;;40.25;34.75;;;;;12.13;63.14;103416.84;4970539;28;45576;-85
2021/12/16 17:23:41;;;;;;;;;40.50;34.00;;;;;12.10;63.29;103421.84;4959020;28;45278;-85
2021/12/16 17:26:26;;;;;;;;;36.75;33.25;;;;;12.11;62.62;103416.69;4978051;28;45364;-85
2021/12/16 17:28:54;;;;;;;;;37.50;34.75;;;;;12.09;63.12;103413.03;4962115;28;46264;-85
2021/12/16 17:31:39;;;;;;;;;39.75;30.75;;;;;12.14;63.18;103418.69;4977505;28;45574;-84
2021/12/16 17:34:06;;;;;;;;;30.25;29.00;;;;;12.14;63.36;103423.97;4952872;28;45543;-84
2021/12/16 17:36:32;;;;;;;;;38.25;33.75;;;;;12.13;63.11;103416.84;4976934;28;45404;-86
2021/12/16 17:39:07;;;;;;;;;36.25;32.50;;;;;12.09;63.09;103413.03;4978523;28;46621;-86
2021/12/16 17:41:33;;;;;;;;;34.50;32.25;;;;;12.11;63.51;103421.06;4971710;28;45559;-87
2021/12/16 17:43:59;;;;;;;;;31.50;28.25;;;;;12.11;62.60;103410.53;4970270;28;45542;-88
2021/12/16 17:46:24;;;;;;;;;34.00;30.75;;;;;12.10;63.29;103422.78;4974429;28;45695;-88
2021/12/16 17:48:49;;;;;;;;;34.00;31.25;;;;;12.08;63.32;103427.00;4968041;28;45498;-87
2021/12/16 17:51:27;;;;;;;;;27.50;27.50;;;;;12.06;62.43;103423.31;4979974;28;45574;-87
2021/12/16 17:53:59;;;;;;;;;34.00;30.50;;;;;12.04;62.77;103420.53;4967197;28;45625;-88
2021/12/16 17:56:27;;;;;;;;;32.67;28.00;;;;;12.05;62.48;103429.38;4955302;28;45555;-88
2021/12/16 17:58:57;;;;;;;;;27.00;26.33;;;;;11.98;62.61;103416.50;4951709;28;48448;-88
2021/12/16 18:01:39;;;;;;;;;30.33;28.00;;;;;11.93;62.66;103426.66;4962308;28;45594;-89
2021/12/16 18:04:05;;;;;;;;;33.33;27.33;;;;;11.88;62.25;103426.25;4972945;28;45575;-87
2021/12/16 18:06:32;;;;;;;;;30.33;27.00;;;;;11.81;62.54;103422.19;4971910;28;45600;-88
2021/12/16 18:09:16;;;;;;;;;34.33;27.67;;;;;11.73;62.35;103412.72;4969922;28;46605;-87
2021/12/16 18:11:50;;;;;;;;;32.00;28.00;;;;;11.72;63.11;103416.16;4971213;28;45842;-88
2021/12/16 18:14:21;;;;;;;;;32.67;27.67;;;;;11.65;63.02;103411.19;4968286;28;45490;-87
2021/12/16 18:17:00;;;;;;;;;34.00;27.33;;;;;11.61;63.97;103416.19;4971622;28;45559;-93
2021/12/16 18:19:44;;;;;;;;;31.00;26.67;;;;;11.56;63.46;103409.59;4971805;28;47075;-85
2021/12/16 18:22:19;;;;;;;;;31.67;24.33;;;;;11.53;63.60;103408.41;4975284;28;46044;-85
2021/12/16 18:24:51;;;;;;;;;32.25;31.25;;;;;11.49;63.53;103413.41;4965534;28;45902;-85
2021/12/16 18:27:28;;;;;;;;;51.50;41.75;;;;;11.45;63.67;103415.66;4977584;28;45519;-85
2021/12/16 18:29:57;;;;;;;;;36.50;31.50;;;;;11.34;63.17;103407.78;4971222;28;46072;-85
2021/12/16 18:32:32;;;;;;;;;35.75;29.25;;;;;11.33;64.11;103416.47;4957215;28;45895;-86
2021/12/16 18:34:59;;;;;;;;;43.25;36.25;;;;;11.29;64.21;103422.22;4954026;28;45388;-85
2021/12/16 18:37:25;;;;;;;;;46.50;38.50;;;;;11.26;63.86;103419.38;4953391;28;45813;-86
2021/12/16 18:39:53;;;;;;;;;46.50;38.00;;;;;11.21;64.06;103424.22;4972479;28;45359;-86
2021/12/16 18:42:22;;;;;;;;;19.25;17.25;;;;;11.18;64.17;103432.75;4965729;28;45615;-86
2021/12/16 18:44:55;;;;;;;;;39.00;35.00;;;;;11.14;64.57;103433.28;4971880;28;45447;-86
2021/12/16 18:47:31;;;;;;;;;36.25;34.75;;;;;11.13;64.78;103428.81;4970982;28;45448;-85
2021/12/16 18:50:02;;;;;;;;;40.25;36.75;;;;;11.10;64.45;103436.44;4972040;28;45431;-85
2021/12/16 18:54:27;;;;;;;;;41.50;36.00;;;;;11.06;64.78;103434.31;4970680;28;45412;-86
2021/12/16 18:55:31;;;;;;;;;47.25;37.00;;;;;11.04;64.76;103441.16;4972133;28;45944;-85
2021/12/16 18:57:56;;;;;;;;;53.00;39.50;;;;;10.99;64.47;103442.47;4968354;28;45544;-86
2021/12/16 19:00:22;;;;;;;;;50.75;40.00;;;;;10.90;64.51;103434.72;4971053;28;47432;-85
2021/12/16 19:02:47;;;;;;;;;46.25;37.00;;;;;10.87;64.74;103439.69;4960434;28;45774;-85
2021/12/16 19:05:13;;;;;;;;;31.50;28.00;;;;;10.79;64.69;103437.31;4956741;28;45554;-85
2021/12/16 19:07:39;;;;;;;;;44.25;37.25;;;;;10.77;65.28;103444.13;4982891;28;45454;-86
2021/12/16 19:10:09;;;;;;;;;48.25;40.25;;;;;10.79;65.33;103455.72;4976755;28;46921;-87
2021/12/16 19:12:37;;;;;;;;;43.75;37.25;;;;;10.77;64.98;103454.63;4978403;28;45842;-86
2021/12/16 19:15:13;;;;;;;;;40.50;36.00;;;;;10.72;65.43;103453.34;4999353;28;44755;-87
2021/12/16 19:17:40;;;;;;;;;47.00;38.25;;;;;10.72;65.42;103458.59;4978421;28;44940;-88
2021/12/16 19:20:10;;;;;;;;;55.50;38.75;;;;;10.70;65.64;103455.81;4966162;28;47332;-89
2021/12/16 19:22:36;;;;;;;;;44.50;36.75;;;;;10.65;65.76;103453.53;4975430;28;45663;-84
2021/12/16 19:25:03;;;;;;;;;54.00;40.75;;;;;10.63;65.52;103445.53;4964607;28;45482;-89
2021/12/16 19:27:28;;;;;;;;;51.50;39.75;;;;;10.63;65.85;103450.78;4970927;28;45555;-87
2021/12/16 19:29:56;;;;;;;;;47.50;41.00;;;;;10.64;65.75;103450.03;4972699;28;46929;-86
2021/12/16 19:32:23;;;;;;;;;46.75;38.25;;;;;10.63;65.77;103453.41;4974016;28;45555;-86
2021/12/16 19:34:52;;;;;;;;;48.50;40.75;;;;;10.60;65.86;103453.13;4956156;28;45787;-86
2021/12/16 19:37:18;;;;;;;;;54.25;41.50;;;;;10.53;65.80;103446.44;4972064;28;45358;-86
2021/12/16 19:39:44;;;;;;;;;49.75;40.25;;;;;10.58;65.83;103462.59;4972007;28;45891;-86
2021/12/16 19:42:10;;;;;;;;;55.75;43.00;;;;;10.55;66.55;103462.31;4983876;28;45470;-86
2021/12/16 19:44:36;;;;;;;;;56.25;43.50;;;;;10.46;66.10;103439.66;4971707;28;45577;-87
2021/12/16 19:47:02;;;;;;;;;50.75;41.25;;;;;10.49;66.45;103447.81;4964294;28;45813;-86
2021/12/16 19:49:31;;;;;;;;;53.25;43.50;;;;;10.46;66.22;103444.00;4953398;28;47710;-86
2021/12/16 19:51:58;;;;;;;;;49.25;41.75;;;;;10.44;67.06;103454.34;4972503;28;45953;-86